Weather at Snåsa Airfield Grønøra

Public forecast

Using degrees Celsius for public forecast. Weather courtesy of forecast.io.

Closest aviation weather report (METAR) to Snåsa Airfield Grønøra

Report is more than 6 hours old.

Closest report is Namsos Høknesøra Airport, 23.2 nm (43.0 km) NW. Retrieved 2021/08/05 19:50 UTC (6 hours ago):

ENNM 051950Z 34001KT 9999 VCSH FEW020 SCT080 15/11 Q1011

Closest aviation forecast (TAF) to Snåsa Airfield Grønøra

Closest forecast is Trondheim Airport Værnes, 54.7 nm (101.3 km) SW. Retrieved 2021-08-06 00:59 UTC (54 minutes ago):

TAF ENVA 052300Z 0600/0624 VRB07KT 9999 FEW040 BECMG 0606/0608 15012KT